Time;durP1;ratioP1;P1;durP2;ratioP2;P2;SDS_P1;SDS_P2;PMS_P1;PMS_P2;Temp;Humidity;BMP_temperature;BMP_pressure;BME280_temperature;BME280_humidity;BME280_pressure;Samples;Min_cycle;Max_cycle;Signal;HPM_P1;HPM_P2
2021/05/06 00:01:47;;;;;;;0.90;0.20;;;7.80;99.90;;;;;;5054437;28;20479;-54
2021/05/06 00:07:38;;;;;;;0.50;0.30;;;7.90;99.90;;;;;;5028446;28;20833;-51
2021/05/06 00:32:22;;;;;;;0.40;0.30;;;7.30;99.90;;;;;;5033691;28;20502;-53
2021/05/06 00:34:48;;;;;;;0.50;0.30;;;7.30;99.90;;;;;;5034468;28;20793;-54
2021/05/06 00:37:17;;;;;;;1.20;0.30;;;7.30;99.90;;;;;;5034257;28;20419;-55
2021/05/06 00:39:48;;;;;;;0.60;0.30;;;7.30;99.90;;;;;;5034070;28;20492;-51
2021/05/06 00:56:30;;;;;;;0.70;0.30;;;7.20;99.90;;;;;;5037556;28;20442;-54
2021/05/06 00:59:26;;;;;;;1.15;0.30;;;7.10;99.90;;;;;;5037781;28;20439;-51
2021/05/06 01:02:14;;;;;;;0.60;0.30;;;7.00;99.90;;;;;;5038037;28;20845;-53
2021/05/06 01:04:49;;;;;;;0.50;0.30;;;7.20;99.90;;;;;;5037832;28;20488;-54
2021/05/06 01:10:12;;;;;;;0.90;0.40;;;7.20;99.90;;;;;;5036751;28;20921;-55
2021/05/06 01:12:41;;;;;;;1.00;0.30;;;7.20;99.90;;;;;;5037530;28;20422;-54
2021/05/06 01:15:12;;;;;;;0.80;0.30;;;7.20;99.90;;;;;;5037503;28;20846;-50
2021/05/06 01:17:39;;;;;;;1.30;0.30;;;7.20;99.90;;;;;;5046093;28;20475;-51
2021/05/06 01:20:07;;;;;;;0.90;0.30;;;7.10;99.90;;;;;;5057129;28;20429;-53
2021/05/06 01:22:35;;;;;;;0.82;0.30;;;7.00;99.90;;;;;;5057185;28;20421;-51
2021/05/06 01:25:03;;;;;;;0.50;0.30;;;7.00;99.90;;;;;;5057233;28;20456;-55
2021/05/06 01:27:36;;;;;;;0.70;0.40;;;6.90;99.90;;;;;;5057304;28;20817;-56
2021/05/06 01:30:11;;;;;;;0.77;0.30;;;7.00;99.90;;;;;;5057363;28;20426;-54
2021/05/06 01:32:40;;;;;;;0.80;0.40;;;7.00;99.90;;;;;;5057713;28;20857;-52
2021/05/06 01:35:11;;;;;;;1.38;0.30;;;7.10;99.90;;;;;;5057378;28;20483;-53
2021/05/06 01:37:46;;;;;;;2.10;0.30;;;7.10;99.90;;;;;;5057046;28;20445;-49
2021/05/06 01:43:07;;;;;;;0.57;0.30;;;7.20;99.90;;;;;;5041484;28;21168;-53
2021/05/06 01:46:01;;;;;;;0.60;0.35;;;7.20;99.90;;;;;;5056884;28;20421;-55
2021/05/06 01:48:50;;;;;;;1.05;0.40;;;7.20;99.90;;;;;;5056458;28;20421;-54
2021/05/06 01:57:30;;;;;;;1.30;0.40;;;7.20;99.90;;;;;;5056158;28;20483;-51
2021/05/06 01:59:45;;;;;;;0.50;0.30;;;7.20;99.90;;;;;;5055727;28;20420;-51
2021/05/06 02:02:12;;;;;;;0.75;0.35;;;7.20;99.90;;;;;;5056394;28;20425;-54
2021/05/06 02:04:39;;;;;;;0.55;0.30;;;7.20;99.90;;;;;;5056501;28;20437;-52
2021/05/06 02:07:05;;;;;;;0.60;0.30;;;7.30;99.90;;;;;;5056131;28;20421;-54
2021/05/06 02:09:33;;;;;;;0.70;0.30;;;7.30;99.90;;;;;;5056278;28;20863;-54
2021/05/06 02:12:00;;;;;;;0.70;0.40;;;7.30;99.90;;;;;;5056456;28;20471;-54
2021/05/06 02:14:27;;;;;;;0.80;0.40;;;7.30;99.90;;;;;;5056552;28;20429;-51
2021/05/06 02:16:54;;;;;;;1.20;0.40;;;7.30;99.90;;;;;;5054938;28;20420;-55
2021/05/06 02:19:28;;;;;;;2.55;0.30;;;7.30;99.90;;;;;;5055021;28;20436;-54
2021/05/06 02:21:55;;;;;;;0.60;0.40;;;7.20;99.90;;;;;;5055711;28;20427;-54
2021/05/06 02:24:21;;;;;;;0.60;0.40;;;7.20;99.90;;;;;;5055542;28;20477;-52
2021/05/06 02:26:49;;;;;;;0.70;0.40;;;7.30;99.90;;;;;;5054922;28;20425;-53
2021/05/06 02:29:16;;;;;;;0.70;0.40;;;7.30;99.90;;;;;;5055722;28;20741;-56
2021/05/06 02:31:43;;;;;;;0.50;0.30;;;7.40;99.90;;;;;;5055494;28;20440;-53
2021/05/06 02:34:10;;;;;;;0.60;0.30;;;7.20;99.90;;;;;;5055927;28;20475;-53
2021/05/06 02:36:36;;;;;;;0.60;0.30;;;7.20;99.90;;;;;;5056117;28;20509;-54
2021/05/06 02:39:04;;;;;;;1.20;0.30;;;7.20;99.90;;;;;;5055955;28;20817;-52
2021/05/06 02:41:31;;;;;;;0.80;0.30;;;7.20;99.90;;;;;;5055853;28;20421;-54
2021/05/06 02:43:59;;;;;;;0.57;0.30;;;7.30;99.90;;;;;;5056185;28;20934;-53
2021/05/06 02:46:26;;;;;;;1.67;0.40;;;7.20;99.90;;;;;;5055541;28;20915;-54
2021/05/06 02:48:53;;;;;;;1.83;0.50;;;7.20;99.90;;;;;;5056150;28;20868;-53
2021/05/06 02:51:23;;;;;;;1.05;0.40;;;7.20;99.90;;;;;;5055680;28;20425;-52
2021/05/06 02:53:52;;;;;;;0.85;0.40;;;7.20;99.90;;;;;;5054792;28;20478;-53
2021/05/06 02:56:25;;;;;;;0.65;0.30;;;7.20;99.90;;;;;;5055583;28;20425;-55
2021/05/06 02:59:05;;;;;;;1.27;0.40;;;7.20;99.90;;;;;;5054833;28;20844;-52
2021/05/06 03:04:18;;;;;;;0.70;0.30;;;7.20;99.90;;;;;;5053998;28;20515;-54
2021/05/06 03:06:49;;;;;;;0.70;0.40;;;7.20;99.90;;;;;;5055148;28;20425;-51
2021/05/06 03:09:28;;;;;;;0.60;0.30;;;7.20;99.90;;;;;;5055237;28;20452;-51
2021/05/06 03:12:04;;;;;;;1.00;0.38;;;7.20;99.90;;;;;;5055369;28;20499;-49
2021/05/06 03:22:47;;;;;;;0.60;0.40;;;7.50;99.90;;;;;;5054501;28;20440;-55
2021/05/06 03:25:17;;;;;;;1.30;0.40;;;7.70;99.90;;;;;;5054596;28;20461;-48
2021/05/06 03:27:49;;;;;;;0.80;0.30;;;7.50;99.90;;;;;;5054987;28;20457;-53
2021/05/06 03:41:42;;;;;;;1.00;0.50;;;6.50;99.90;;;;;;5054273;28;20728;-50
2021/05/06 03:47:33;;;;;;;0.80;0.50;;;6.30;99.90;;;;;;5054902;28;20781;-53
2021/05/06 04:17:54;;;;;;;0.65;0.40;;;6.80;99.90;;;;;;5054054;28;20626;-50
2021/05/06 04:25:59;;;;;;;0.70;0.50;;;6.50;99.90;;;;;;5057379;28;20424;-48
2021/05/06 04:29:26;;;;;;;1.88;0.50;;;6.40;99.90;;;;;;5058162;28;20417;-51
2021/05/06 04:37:03;;;;;;;0.80;0.50;;;6.30;99.90;;;;;;5056724;28;21075;-51
2021/05/06 04:53:48;;;;;;;0.70;0.40;;;6.60;99.90;;;;;;5057562;28;20393;-54
2021/05/06 04:59:20;;;;;;;1.33;0.50;;;6.60;99.90;;;;;;5055657;28;20457;-47
2021/05/06 05:04:33;;;;;;;0.70;0.40;;;6.60;99.90;;;;;;5069398;28;21000;-48
2021/05/06 05:07:08;;;;;;;1.58;0.50;;;6.80;99.90;;;;;;5075914;28;20434;-51
2021/05/06 05:12:25;;;;;;;1.00;0.50;;;6.90;99.90;;;;;;5074099;28;20846;-50
2021/05/06 05:15:06;;;;;;;0.90;0.50;;;6.90;99.90;;;;;;5077354;28;20427;-50
2021/05/06 05:17:47;;;;;;;1.40;0.40;;;6.90;99.90;;;;;;5075633;28;20435;-48
2021/05/06 05:20:18;;;;;;;6.72;4.10;;;6.80;99.90;;;;;;5074889;28;20777;-46
2021/05/06 05:25:33;;;;;;;0.80;0.50;;;7.00;99.90;;;;;;5065831;28;20437;-49
2021/05/06 05:28:03;;;;;;;0.70;0.50;;;7.00;99.90;;;;;;5077066;28;20823;-46
2021/05/06 05:30:31;;;;;;;1.20;0.50;;;6.90;99.90;;;;;;5077013;28;20427;-46
2021/05/06 05:32:58;;;;;;;1.10;0.60;;;6.80;99.90;;;;;;5075236;28;20708;-50
2021/05/06 05:35:36;;;;;;;0.70;0.50;;;6.90;99.90;;;;;;5075500;28;20480;-46
2021/05/06 05:38:08;;;;;;;22.23;14.20;;;6.90;99.90;;;;;;5074941;28;20477;-46
2021/05/06 05:40:40;;;;;;;1.40;0.50;;;7.10;99.90;;;;;;5074648;28;20471;-51
2021/05/06 05:43:18;;;;;;;0.73;0.50;;;7.30;99.90;;;;;;5073589;28;20416;-50
2021/05/06 05:46:19;;;;;;;0.90;0.40;;;7.40;99.90;;;;;;5073948;28;20699;-52
2021/05/06 05:54:35;;;;;;;2.03;0.50;;;7.30;99.90;;;;;;5075165;28;20406;-47
2021/05/06 05:57:02;;;;;;;0.80;0.50;;;7.30;99.90;;;;;;5076144;28;20468;-51
2021/05/06 05:59:29;;;;;;;1.50;0.60;;;7.20;99.90;;;;;;5075757;28;20878;-48
2021/05/06 06:01:56;;;;;;;1.30;0.50;;;7.20;99.90;;;;;;5074959;28;20426;-52
2021/05/06 06:04:23;;;;;;;0.90;0.50;;;7.20;99.90;;;;;;5072634;28;20719;-50
2021/05/06 06:06:50;;;;;;;1.00;0.50;;;7.10;99.90;;;;;;5074317;28;20423;-51
2021/05/06 06:09:16;;;;;;;1.70;0.50;;;7.10;99.90;;;;;;5073049;28;20427;-47
2021/05/06 06:11:43;;;;;;;1.50;0.60;;;7.10;99.90;;;;;;5074491;28;20426;-52
2021/05/06 06:14:10;;;;;;;1.50;0.50;;;7.10;99.90;;;;;;5071733;28;20434;-49
2021/05/06 06:16:40;;;;;;;1.48;0.80;;;7.00;99.90;;;;;;5073187;28;20424;-52
2021/05/06 06:19:07;;;;;;;0.90;0.50;;;7.00;99.90;;;;;;5073298;28;20526;-47
2021/05/06 06:21:40;;;;;;;1.20;0.52;;;7.10;99.90;;;;;;5073631;28;20426;-49
2021/05/06 06:24:09;;;;;;;0.90;0.50;;;7.20;99.90;;;;;;5074533;28;20435;-49
2021/05/06 06:26:36;;;;;;;1.20;0.60;;;7.30;99.90;;;;;;5073871;28;20536;-52
2021/05/06 06:29:06;;;;;;;1.30;0.47;;;7.40;99.90;;;;;;5072319;28;20871;-47
2021/05/06 06:31:37;;;;;;;2.10;0.52;;;7.40;99.90;;;;;;5071838;28;20431;-53
2021/05/06 06:34:05;;;;;;;1.50;0.50;;;7.20;99.90;;;;;;5071912;28;20874;-53
2021/05/06 06:36:32;;;;;;;0.80;0.50;;;7.30;99.90;;;;;;5073365;28;20541;-54
2021/05/06 06:38:59;;;;;;;1.77;0.40;;;7.50;99.90;;;;;;5073244;28;20865;-49
2021/05/06 06:41:26;;;;;;;1.70;0.57;;;7.60;99.90;;;;;;5072744;28;20427;-54
2021/05/06 06:43:55;;;;;;;1.10;0.40;;;7.70;99.90;;;;;;5074769;28;20442;-52
2021/05/06 06:46:22;;;;;;;0.70;0.50;;;7.80;99.90;;;;;;5073845;28;20423;-52
2021/05/06 06:48:49;;;;;;;0.70;0.40;;;7.80;99.90;;;;;;5072723;28;20438;-60
2021/05/06 06:51:17;;;;;;;1.60;0.50;;;7.80;99.90;;;;;;5066131;28;20431;-62
2021/05/06 06:53:44;;;;;;;0.70;0.50;;;7.70;99.90;;;;;;5072436;28;20450;-61
2021/05/06 06:56:11;;;;;;;583.50;413.75;;;7.70;99.90;;;;;;5071475;28;20513;-60
2021/05/06 06:58:39;;;;;;;37.20;27.17;;;7.70;99.90;;;;;;5071755;28;20716;-61
2021/05/06 07:01:07;;;;;;;6.65;4.13;;;7.80;99.90;;;;;;5072458;28;20849;-60
2021/05/06 07:03:34;;;;;;;5.80;3.40;;;7.80;99.90;;;;;;5070050;28;20446;-60
2021/05/06 07:06:01;;;;;;;3.08;1.10;;;8.00;99.90;;;;;;5072545;28;20706;-60
2021/05/06 07:08:32;;;;;;;1.58;0.50;;;8.00;99.90;;;;;;5069733;28;20427;-61
2021/05/06 07:11:00;;;;;;;1.87;0.50;;;8.00;99.90;;;;;;5073843;28;20503;-62
2021/05/06 07:13:28;;;;;;;1.30;0.40;;;8.20;99.90;;;;;;5070490;28;20415;-61
2021/05/06 07:15:56;;;;;;;0.98;0.40;;;8.20;99.90;;;;;;5068449;28;20444;-62
2021/05/06 07:18:23;;;;;;;0.75;0.50;;;8.20;99.90;;;;;;5070914;28;20442;-61
2021/05/06 07:20:50;;;;;;;1.10;0.40;;;8.20;99.90;;;;;;5071416;28;20420;-61
2021/05/06 07:23:19;;;;;;;1.08;0.40;;;8.30;99.90;;;;;;5071505;28;20443;-62
2021/05/06 07:25:48;;;;;;;0.70;0.40;;;8.30;99.90;;;;;;5071245;28;20435;-63
2021/05/06 07:28:16;;;;;;;1.80;1.20;;;8.30;99.90;;;;;;5070211;28;20419;-64
2021/05/06 07:30:43;;;;;;;1.02;0.45;;;8.30;99.90;;;;;;5071858;28;20439;-64
2021/05/06 07:33:10;;;;;;;2.17;0.50;;;8.30;99.90;;;;;;5071246;28;20434;-64
2021/05/06 07:35:37;;;;;;;1.90;0.50;;;8.40;99.90;;;;;;5070545;28;20897;-63
2021/05/06 07:38:05;;;;;;;1.90;0.50;;;8.80;99.90;;;;;;5069965;28;20423;-63
2021/05/06 07:40:32;;;;;;;0.90;0.40;;;8.90;99.90;;;;;;5069100;28;20497;-64
2021/05/06 07:43:00;;;;;;;1.35;0.60;;;9.20;99.90;;;;;;5068411;28;20424;-62
2021/05/06 07:45:27;;;;;;;11.13;2.70;;;9.40;99.90;;;;;;5068839;28;20435;-61
2021/05/06 07:47:54;;;;;;;0.80;0.60;;;9.50;99.90;;;;;;5071598;28;20712;-60
2021/05/06 07:50:22;;;;;;;0.98;0.50;;;9.40;99.90;;;;;;5070286;28;20749;-60
2021/05/06 07:52:51;;;;;;;1.45;0.50;;;9.20;99.90;;;;;;5070746;28;20531;-61
2021/05/06 07:55:19;;;;;;;2.03;0.85;;;9.20;99.90;;;;;;5071008;28;20791;-63
2021/05/06 07:57:45;;;;;;;3.55;0.82;;;9.50;99.90;;;;;;5071745;28;20427;-64
2021/05/06 08:00:18;;;;;;;2.45;0.70;;;9.70;99.90;;;;;;5071093;28;20454;-65
2021/05/06 08:02:47;;;;;;;1.00;0.50;;;9.90;99.90;;;;;;5071644;28;20449;-65
2021/05/06 08:05:14;;;;;;;18.73;13.52;;;9.90;99.90;;;;;;5069032;28;20432;-65
2021/05/06 08:07:42;;;;;;;5.72;2.53;;;10.00;99.90;;;;;;5050027;28;20429;-65
2021/05/06 08:10:10;;;;;;;2.15;0.70;;;9.90;99.90;;;;;;5049875;28;20429;-68
2021/05/06 08:12:37;;;;;;;2.00;0.50;;;9.90;99.90;;;;;;5050890;28;20476;-66
2021/05/06 08:15:07;;;;;;;0.90;0.40;;;9.80;99.90;;;;;;5050953;28;20728;-66
2021/05/06 08:17:35;;;;;;;1.17;0.47;;;9.60;99.90;;;;;;5052473;28;20427;-67
2021/05/06 08:20:04;;;;;;;1.73;0.50;;;9.50;99.90;;;;;;5068817;28;20492;-66
2021/05/06 08:22:32;;;;;;;1.00;0.50;;;9.70;99.90;;;;;;5070982;28;20481;-66
2021/05/06 08:24:59;;;;;;;1.40;0.40;;;9.80;99.90;;;;;;5070805;28;20916;-66
2021/05/06 08:27:26;;;;;;;1.70;0.50;;;9.80;99.90;;;;;;5072489;28;20747;-66
2021/05/06 08:29:53;;;;;;;0.65;0.40;;;10.10;99.90;;;;;;5071916;28;20905;-67
2021/05/06 08:32:20;;;;;;;0.70;0.40;;;10.30;99.90;;;;;;5071529;28;20434;-66
2021/05/06 08:34:49;;;;;;;1.13;0.50;;;10.00;99.90;;;;;;5069639;28;20428;-65
2021/05/06 08:37:16;;;;;;;1.00;0.40;;;9.90;99.90;;;;;;5069370;28;21017;-64
2021/05/06 08:39:43;;;;;;;1.40;0.50;;;9.80;99.90;;;;;;5068547;28;20438;-61
2021/05/06 08:42:11;;;;;;;2.00;0.60;;;9.90;99.90;;;;;;5070739;28;20851;-61
2021/05/06 08:44:39;;;;;;;2.38;0.90;;;9.90;99.90;;;;;;5068608;28;20819;-61
2021/05/06 08:47:11;;;;;;;0.77;0.40;;;9.90;99.90;;;;;;5069530;28;21066;-60
2021/05/06 08:49:39;;;;;;;2.20;0.40;;;9.80;99.90;;;;;;5069199;28;20529;-61
2021/05/06 08:52:09;;;;;;;1.40;0.50;;;9.80;99.90;;;;;;5070590;28;20420;-62
2021/05/06 08:54:37;;;;;;;1.20;0.50;;;9.80;99.90;;;;;;5070105;28;20450;-61
2021/05/06 08:57:04;;;;;;;1.63;0.50;;;9.80;99.90;;;;;;5070411;28;20423;-61
2021/05/06 08:59:31;;;;;;;2.95;0.60;;;10.00;99.90;;;;;;5070252;28;20431;-60
2021/05/06 09:01:58;;;;;;;1.70;0.47;;;10.20;99.90;;;;;;5068778;28;20422;-60
2021/05/06 09:04:26;;;;;;;1.50;0.50;;;10.20;99.90;;;;;;5069487;28;20446;-60
2021/05/06 09:06:54;;;;;;;1.30;0.40;;;10.30;99.90;;;;;;5071970;28;20419;-60
2021/05/06 09:09:23;;;;;;;1.90;0.40;;;10.40;99.90;;;;;;5074389;28;20434;-60
2021/05/06 09:11:54;;;;;;;1.33;0.50;;;10.60;99.90;;;;;;5073423;28;20415;-60
2021/05/06 09:14:35;;;;;;;2.08;0.50;;;10.60;99.90;;;;;;5072668;28;20827;-59
2021/05/06 09:17:03;;;;;;;1.30;0.50;;;10.40;99.90;;;;;;5073445;28;20431;-60
2021/05/06 09:19:30;;;;;;;1.10;0.60;;;10.40;99.90;;;;;;5071832;28;20839;-60
2021/05/06 09:21:57;;;;;;;1.83;0.50;;;10.60;99.90;;;;;;5052209;28;20697;-60
2021/05/06 09:24:28;;;;;;;1.00;0.40;;;10.70;99.90;;;;;;5051768;28;20587;-60
2021/05/06 09:26:57;;;;;;;0.90;0.40;;;10.70;99.90;;;;;;5052445;28;20421;-59
2021/05/06 09:29:34;;;;;;;1.70;0.50;;;10.40;99.90;;;;;;5052026;28;20436;-59
2021/05/06 09:32:18;;;;;;;1.30;0.40;;;10.20;99.90;;;;;;5053177;28;20464;-59
2021/05/06 09:34:47;;;;;;;1.10;0.50;;;10.10;99.90;;;;;;5052021;28;20421;-59
2021/05/06 09:37:22;;;;;;;1.00;0.50;;;10.00;99.90;;;;;;5052587;28;20857;-64
2021/05/06 09:39:57;;;;;;;1.20;0.40;;;9.90;99.90;;;;;;5054499;28;20436;-65
2021/05/06 09:42:37;;;;;;;0.90;0.50;;;9.90;99.90;;;;;;5053867;28;20421;-65
2021/05/06 09:45:06;;;;;;;1.70;0.50;;;10.00;99.90;;;;;;5053919;28;20463;-65
2021/05/06 09:47:33;;;;;;;0.98;0.50;;;10.10;99.90;;;;;;5054490;28;20681;-64
2021/05/06 09:50:00;;;;;;;2.30;0.50;;;10.20;99.90;;;;;;5053050;28;20463;-65
2021/05/06 09:52:27;;;;;;;0.80;0.40;;;10.20;99.90;;;;;;5049687;28;20484;-65
2021/05/06 09:54:55;;;;;;;0.90;0.40;;;10.20;99.90;;;;;;5049712;28;20749;-65
2021/05/06 09:57:27;;;;;;;1.20;0.50;;;10.10;99.90;;;;;;5051334;28;20475;-65
2021/05/06 10:00:13;;;;;;;1.65;0.50;;;10.10;99.90;;;;;;5050660;28;20429;-64
2021/05/06 10:02:40;;;;;;;0.70;0.40;;;10.10;99.90;;;;;;5051114;28;20430;-62
2021/05/06 10:05:10;;;;;;;1.00;0.40;;;10.00;99.90;;;;;;5050931;28;20468;-65
2021/05/06 10:07:37;;;;;;;1.90;0.80;;;10.10;99.90;;;;;;5051686;28;20429;-65
2021/05/06 10:10:08;;;;;;;2.17;0.57;;;10.10;99.90;;;;;;5052275;28;20425;-65
2021/05/06 10:12:36;;;;;;;0.70;0.40;;;10.20;99.90;;;;;;5053662;28;20437;-65
2021/05/06 10:15:07;;;;;;;1.80;0.60;;;10.20;99.90;;;;;;5052053;28;20488;-64
2021/05/06 10:17:34;;;;;;;1.20;0.50;;;10.20;99.90;;;;;;5049811;28;20452;-65
2021/05/06 10:20:01;;;;;;;1.10;0.50;;;10.20;99.90;;;;;;5052719;28;20516;-65
2021/05/06 10:22:29;;;;;;;2.08;0.60;;;10.20;99.90;;;;;;5052791;28;20735;-64
2021/05/06 10:24:57;;;;;;;2.00;0.50;;;10.20;99.90;;;;;;5052492;28;20706;-64
2021/05/06 10:27:26;;;;;;;1.90;0.50;;;10.00;99.90;;;;;;5052073;28;20461;-65
2021/05/06 10:29:56;;;;;;;1.65;0.50;;;10.00;99.90;;;;;;5052884;28;20436;-63
2021/05/06 10:32:24;;;;;;;1.55;0.40;;;10.00;99.90;;;;;;5051651;28;20441;-48
2021/05/06 10:34:55;;;;;;;0.90;0.50;;;9.90;99.90;;;;;;5052220;28;20447;-54
2021/05/06 10:37:25;;;;;;;28.27;5.13;;;9.80;99.90;;;;;;5052043;28;20509;-50
2021/05/06 10:39:52;;;;;;;1.60;0.50;;;10.00;99.90;;;;;;5052323;28;20433;-48
2021/05/06 10:42:36;;;;;;;1.00;0.50;;;9.90;99.90;;;;;;5052157;28;20621;-50
2021/05/06 10:45:21;;;;;;;0.80;0.40;;;9.80;99.90;;;;;;5053993;28;20445;-51
2021/05/06 10:47:55;;;;;;;2.10;0.50;;;9.70;99.90;;;;;;5052009;28;20438;-52
2021/05/06 10:50:25;;;;;;;0.80;0.40;;;9.70;99.90;;;;;;5051458;28;20486;-53
2021/05/06 10:52:53;;;;;;;0.80;0.40;;;9.80;99.90;;;;;;5052668;28;20441;-52
2021/05/06 10:55:40;;;;;;;2.10;0.40;;;9.70;99.90;;;;;;5052449;28;20517;-51
2021/05/06 10:58:34;;;;;;;0.65;0.30;;;9.70;99.90;;;;;;5052480;28;20429;-53
2021/05/06 11:01:41;;;;;;;0.90;0.40;;;9.70;99.90;;;;;;5052175;28;20432;-53
2021/05/06 11:04:10;;;;;;;0.90;0.40;;;9.80;99.90;;;;;;5050915;28;20495;-51
2021/05/06 11:06:46;;;;;;;0.60;0.40;;;9.80;99.90;;;;;;5049471;28;20455;-53
2021/05/06 11:09:51;;;;;;;0.70;0.30;;;9.80;99.90;;;;;;5052223;28;20441;-52
2021/05/06 11:12:26;;;;;;;1.40;0.40;;;9.80;99.90;;;;;;5051859;28;20421;-53
2021/05/06 11:15:27;;;;;;;2.10;0.80;;;9.80;99.90;;;;;;5049794;28;20433;-53
2021/05/06 11:17:56;;;;;;;0.70;0.50;;;9.80;99.90;;;;;;5050803;28;20449;-54
2021/05/06 11:20:48;;;;;;;0.80;0.40;;;9.90;99.90;;;;;;5050993;28;20425;-54
2021/05/06 11:23:36;;;;;;;2.10;0.40;;;10.00;99.90;;;;;;5049912;28;20737;-55
2021/05/06 11:26:15;;;;;;;1.70;0.40;;;10.20;99.90;;;;;;5048825;28;20417;-55
2021/05/06 11:28:46;;;;;;;0.70;0.30;;;10.30;99.90;;;;;;5048262;28;20436;-53
2021/05/06 11:31:13;;;;;;;0.93;0.30;;;10.30;99.90;;;;;;5049428;28;20848;-53
2021/05/06 11:33:41;;;;;;;0.60;0.30;;;10.20;99.90;;;;;;5052068;28;20413;-56
2021/05/06 11:36:13;;;;;;;0.60;0.30;;;10.20;99.90;;;;;;5050062;28;20772;-52
2021/05/06 11:38:54;;;;;;;0.80;0.40;;;10.20;99.90;;;;;;5048651;28;20428;-52
2021/05/06 11:41:25;;;;;;;1.27;0.70;;;10.30;99.90;;;;;;5050656;28;20452;-52
2021/05/06 11:43:59;;;;;;;1.10;0.30;;;10.30;99.90;;;;;;5069575;28;20442;-49
2021/05/06 11:46:36;;;;;;;0.52;0.40;;;10.40;99.90;;;;;;5069443;28;20646;-51
2021/05/06 11:49:11;;;;;;;0.50;0.20;;;10.30;99.90;;;;;;5068434;28;20781;-50
2021/05/06 11:51:41;;;;;;;0.40;0.25;;;10.40;99.90;;;;;;5069070;28;20447;-47
2021/05/06 11:54:10;;;;;;;1.00;0.30;;;10.40;99.90;;;;;;5070191;28;20680;-50
2021/05/06 11:56:39;;;;;;;0.60;0.30;;;10.40;99.90;;;;;;5068714;28;20423;-48
2021/05/06 11:59:07;;;;;;;0.43;0.25;;;10.40;99.90;;;;;;5069819;28;20427;-52
2021/05/06 12:01:34;;;;;;;0.50;0.30;;;10.40;99.90;;;;;;5069760;28;20431;-49
2021/05/06 12:04:03;;;;;;;0.80;0.20;;;10.40;99.90;;;;;;5068987;28;20435;-49
2021/05/06 12:06:32;;;;;;;0.57;0.30;;;10.40;99.90;;;;;;5071304;28;20835;-51
2021/05/06 12:09:00;;;;;;;0.80;0.30;;;10.30;99.90;;;;;;5069692;28;20638;-51
2021/05/06 12:11:38;;;;;;;1.20;0.40;;;10.40;99.90;;;;;;5070220;28;20439;-49
2021/05/06 12:14:15;;;;;;;0.50;0.30;;;10.40;99.90;;;;;;5068923;28;20431;-51
2021/05/06 12:16:42;;;;;;;0.50;0.20;;;10.30;99.90;;;;;;5070496;28;20447;-53
2021/05/06 12:19:11;;;;;;;0.45;0.20;;;10.20;99.90;;;;;;5069976;28;20435;-52
2021/05/06 12:21:41;;;;;;;0.50;0.20;;;10.20;99.90;;;;;;5070085;28;20458;-50
2021/05/06 12:24:09;;;;;;;0.60;0.20;;;10.30;99.90;;;;;;5067441;28;20434;-52
2021/05/06 12:26:37;;;;;;;0.60;0.30;;;10.30;99.90;;;;;;5068656;28;20467;-48
2021/05/06 12:29:04;;;;;;;0.60;0.30;;;10.30;99.90;;;;;;5069569;28;20435;-53
2021/05/06 12:31:44;;;;;;;1.00;0.30;;;10.50;99.90;;;;;;5068779;28;20436;-50
2021/05/06 12:34:17;;;;;;;0.50;0.30;;;10.60;99.90;;;;;;5068432;28;20497;-48
2021/05/06 12:36:52;;;;;;;0.60;0.30;;;10.50;99.90;;;;;;5068294;28;20747;-50
2021/05/06 12:39:20;;;;;;;0.70;0.30;;;10.40;99.90;;;;;;5067977;28;20460;-49
2021/05/06 12:41:55;;;;;;;1.60;0.25;;;10.30;99.90;;;;;;5070926;28;20861;-54
2021/05/06 12:44:44;;;;;;;0.40;0.20;;;10.30;99.90;;;;;;5073549;28;20603;-53
2021/05/06 12:47:15;;;;;;;0.70;0.40;;;10.30;99.90;;;;;;5073131;28;20435;-53
2021/05/06 12:49:44;;;;;;;0.40;0.30;;;10.20;99.90;;;;;;5072760;28;20762;-47
2021/05/06 12:52:31;;;;;;;0.50;0.25;;;10.20;99.90;;;;;;5071197;28;20924;-52
2021/05/06 12:55:01;;;;;;;0.50;0.30;;;10.10;99.90;;;;;;5071176;28;20704;-48
2021/05/06 12:57:28;;;;;;;0.60;0.40;;;10.20;99.90;;;;;;5072408;28;20439;-52
2021/05/06 12:59:54;;;;;;;0.50;0.30;;;10.10;99.90;;;;;;5071764;28;20435;-48
2021/05/06 13:02:21;;;;;;;0.80;0.35;;;10.00;99.90;;;;;;5071769;28;20727;-51
2021/05/06 13:04:51;;;;;;;1.10;0.50;;;10.00;99.90;;;;;;5071256;28;20431;-50
2021/05/06 13:07:19;;;;;;;0.75;0.40;;;9.90;99.90;;;;;;5071575;28;20439;-51
2021/05/06 13:09:48;;;;;;;0.50;0.30;;;9.90;99.90;;;;;;5073015;28;20501;-52
2021/05/06 13:12:17;;;;;;;0.80;0.30;;;9.70;99.90;;;;;;5071345;28;20439;-50
2021/05/06 13:14:49;;;;;;;0.60;0.30;;;9.70;99.90;;;;;;5072123;28;20767;-51
2021/05/06 13:17:26;;;;;;;0.52;0.30;;;9.60;99.90;;;;;;5072997;28;20446;-50
2021/05/06 13:19:55;;;;;;;0.50;0.30;;;9.60;99.90;;;;;;5072399;28;20485;-50
2021/05/06 13:22:22;;;;;;;2.40;0.47;;;9.70;99.90;;;;;;5069904;28;20439;-50
2021/05/06 13:24:51;;;;;;;0.70;0.40;;;9.70;99.90;;;;;;5070103;28;20435;-48
2021/05/06 13:27:20;;;;;;;0.60;0.40;;;9.80;99.90;;;;;;5070839;28;20496;-51
2021/05/06 13:29:56;;;;;;;0.50;0.40;;;9.80;99.90;;;;;;5069480;28;20435;-47
2021/05/06 13:32:34;;;;;;;0.60;0.40;;;9.80;99.90;;;;;;5071510;28;20542;-51
2021/05/06 13:35:02;;;;;;;0.70;0.30;;;9.80;99.90;;;;;;5067591;28;20924;-50
2021/05/06 13:37:36;;;;;;;2.30;0.90;;;9.60;99.90;;;;;;5068604;28;20447;-50
2021/05/06 13:40:06;;;;;;;0.90;0.40;;;9.60;99.90;;;;;;5070923;28;20497;-47
2021/05/06 13:42:33;;;;;;;0.90;0.60;;;9.50;99.90;;;;;;5069768;28;20423;-50
2021/05/06 13:45:00;;;;;;;1.35;0.40;;;9.50;99.90;;;;;;5071872;28;20501;-50
2021/05/06 13:47:27;;;;;;;1.50;0.40;;;9.50;99.90;;;;;;5071195;28;20518;-49
2021/05/06 13:49:54;;;;;;;0.60;0.40;;;9.40;99.90;;;;;;5072038;28;20439;-47
2021/05/06 13:52:24;;;;;;;1.00;0.40;;;9.40;99.90;;;;;;5072396;28;20420;-52
2021/05/06 13:54:51;;;;;;;0.70;0.40;;;9.40;99.90;;;;;;5071621;28;20435;-48
2021/05/06 13:57:24;;;;;;;0.80;0.50;;;9.30;99.90;;;;;;5070565;28;20423;-48
2021/05/06 13:59:51;;;;;;;1.30;0.50;;;9.30;99.90;;;;;;5070598;28;20503;-47
2021/05/06 14:02:20;;;;;;;0.90;0.50;;;9.30;99.90;;;;;;5073008;28;20556;-55
2021/05/06 14:04:48;;;;;;;0.80;0.50;;;9.30;99.90;;;;;;5071584;28;20424;-50
2021/05/06 14:07:15;;;;;;;1.23;0.50;;;9.30;99.90;;;;;;5071444;28;20419;-55
2021/05/06 14:09:43;;;;;;;0.60;0.40;;;9.30;99.90;;;;;;5071101;28;20555;-53
2021/05/06 14:12:10;;;;;;;0.80;0.50;;;9.30;99.90;;;;;;5071810;28;20428;-53
2021/05/06 14:14:37;;;;;;;1.40;0.50;;;9.40;99.90;;;;;;5072545;28;20465;-50
2021/05/06 14:17:04;;;;;;;0.73;0.40;;;9.40;99.90;;;;;;5072699;28;20432;-53
2021/05/06 14:19:31;;;;;;;0.88;0.60;;;9.40;99.90;;;;;;5071740;28;20493;-55
2021/05/06 14:21:58;;;;;;;1.33;0.60;;;9.50;99.90;;;;;;5072684;28;20420;-56
2021/05/06 14:24:25;;;;;;;1.20;0.50;;;9.60;99.90;;;;;;5071551;28;20743;-53
2021/05/06 14:26:54;;;;;;;1.00;0.70;;;9.60;99.90;;;;;;5069974;28;20411;-53
2021/05/06 14:29:21;;;;;;;1.00;0.50;;;9.60;99.90;;;;;;5070669;28;20431;-56
2021/05/06 14:31:48;;;;;;;0.80;0.40;;;9.80;99.90;;;;;;5071809;28;20422;-55
2021/05/06 14:34:14;;;;;;;1.40;0.60;;;9.70;99.90;;;;;;5072390;28;20485;-55
2021/05/06 14:36:43;;;;;;;0.80;0.50;;;9.50;99.90;;;;;;5072836;28;20427;-56
2021/05/06 14:39:12;;;;;;;0.60;0.40;;;9.50;99.90;;;;;;5072282;28;20431;-55
2021/05/06 14:41:41;;;;;;;2.10;0.60;;;9.50;99.90;;;;;;5071261;28;20770;-55
2021/05/06 14:44:10;;;;;;;1.20;0.40;;;9.50;99.90;;;;;;5071134;28;20473;-55
2021/05/06 14:46:37;;;;;;;0.60;0.40;;;9.50;99.90;;;;;;5071736;28;21040;-53
2021/05/06 14:49:05;;;;;;;1.00;0.40;;;9.40;99.90;;;;;;5072635;28;20777;-54
2021/05/06 14:51:32;;;;;;;0.50;0.40;;;9.30;99.90;;;;;;5072366;28;20463;-56
2021/05/06 14:53:59;;;;;;;0.90;0.30;;;9.30;99.90;;;;;;5072341;28;20894;-53
2021/05/06 14:56:25;;;;;;;0.80;0.40;;;9.20;99.90;;;;;;5072779;28;20802;-55
2021/05/06 14:58:52;;;;;;;0.60;0.33;;;9.20;99.90;;;;;;5072159;28;20435;-53
2021/05/06 15:01:20;;;;;;;1.60;0.40;;;9.20;99.90;;;;;;5071811;28;20482;-55
2021/05/06 15:03:47;;;;;;;0.77;0.30;;;9.20;99.90;;;;;;5073160;28;20689;-54
2021/05/06 15:06:14;;;;;;;0.70;0.30;;;9.10;99.90;;;;;;5068537;28;20441;-53
2021/05/06 15:08:43;;;;;;;0.50;0.20;;;9.00;99.90;;;;;;5060912;28;20429;-55
2021/05/06 15:11:11;;;;;;;0.60;0.30;;;9.00;99.90;;;;;;5070713;28;20442;-56
2021/05/06 15:13:38;;;;;;;0.55;0.20;;;9.00;99.90;;;;;;5070788;28;20497;-55
2021/05/06 15:16:05;;;;;;;0.45;0.22;;;9.00;99.90;;;;;;5070478;28;20492;-54
2021/05/06 15:18:33;;;;;;;0.60;0.30;;;9.10;99.90;;;;;;5065127;28;20836;-53
2021/05/06 15:21:00;;;;;;;0.43;0.20;;;9.10;99.90;;;;;;5068937;28;20423;-58
2021/05/06 15:23:27;;;;;;;0.60;0.30;;;9.10;99.90;;;;;;5054262;28;20432;-55
2021/05/06 15:25:54;;;;;;;0.57;0.30;;;9.00;99.90;;;;;;5055782;28;20423;-56
2021/05/06 15:28:21;;;;;;;0.50;0.20;;;9.10;99.90;;;;;;5069403;28;20439;-56
2021/05/06 15:30:51;;;;;;;0.47;0.20;;;9.10;99.90;;;;;;5069121;28;20826;-55
2021/05/06 15:33:18;;;;;;;0.50;0.20;;;9.10;99.90;;;;;;5069315;28;20435;-55
2021/05/06 15:35:46;;;;;;;0.50;0.20;;;9.10;99.90;;;;;;5070884;28;20520;-53
2021/05/06 15:38:12;;;;;;;0.63;0.30;;;9.10;99.90;;;;;;5070429;28;20731;-56